Time;durP1;ratioP1;P1;durP2;ratioP2;P2;SDS_P1;SDS_P2;PMS_P1;PMS_P2;Temp;Humidity;BMP_temperature;BMP_pressure;BME280_temperature;BME280_humidity;BME280_pressure;Samples;Min_cycle;Max_cycle;Signal;HPM_P1;HPM_P2
2023/06/14 00:01:47;;;;;;;7.93;2.90;;;;;;;-145.18;100.00;47055.00;5013865;28;20022;-58
2023/06/14 00:04:12;;;;;;;7.07;2.60;;;;;;;-145.18;100.00;47060.84;4997161;28;20044;-58
2023/06/14 00:06:38;;;;;;;7.07;2.50;;;;;;;-145.18;100.00;47074.53;5014915;28;20046;-58
2023/06/14 00:09:04;;;;;;;4.73;3.10;;;;;;;-145.18;100.00;47078.44;5015160;28;20415;-58
2023/06/14 00:11:30;;;;;;;4.43;2.43;;;;;;;-145.18;100.00;47064.75;5013623;28;20483;-58
2023/06/14 00:13:56;;;;;;;3.67;2.40;;;;;;;-145.18;100.00;47060.84;5013463;28;20038;-58
2023/06/14 00:16:22;;;;;;;4.30;2.50;;;;;;;-145.18;100.00;47082.34;4996098;28;20030;-58
2023/06/14 00:18:48;;;;;;;5.93;2.50;;;;;;;-145.18;100.00;47070.63;4996429;28;20029;-58
2023/06/14 00:21:14;;;;;;;7.23;2.67;;;;;;;-145.18;100.00;47066.72;5013709;28;20132;-58
2023/06/14 00:23:39;;;;;;;3.57;2.10;;;;;;;-145.18;100.00;47062.81;5014961;28;20022;-58
2023/06/14 00:26:04;;;;;;;4.03;2.17;;;;;;;-145.18;100.00;47062.81;5013345;28;20514;-57
2023/06/14 00:28:30;;;;;;;8.60;3.00;;;;;;;-145.18;100.00;47066.72;5014117;28;20045;-58
2023/06/14 00:30:55;;;;;;;4.87;2.87;;;;;;;-145.18;100.00;47070.63;5014191;28;20129;-58
2023/06/14 00:33:21;;;;;;;5.40;2.80;;;;;;;-145.18;100.00;47078.44;5013723;28;20030;-58
2023/06/14 00:35:46;;;;;;;7.83;2.73;;;;;;;-145.18;100.00;47064.75;5013768;28;20034;-58
2023/06/14 00:38:12;;;;;;;5.03;2.87;;;;;;;-145.18;100.00;47080.38;5013549;28;20026;-57
2023/06/14 00:40:38;;;;;;;5.40;2.67;;;;;;;-145.18;100.00;47070.63;5015896;28;20025;-57
2023/06/14 00:43:03;;;;;;;6.47;2.57;;;;;;;-145.18;100.00;47082.34;5013553;28;20400;-58
2023/06/14 00:45:31;;;;;;;4.93;2.97;;;;;;;-145.18;100.00;47094.06;5014288;28;20036;-58
2023/06/14 00:47:56;;;;;;;5.87;2.97;;;;;;;-145.18;100.00;47086.25;5010886;28;20506;-58
2023/06/14 00:50:23;;;;;;;7.60;2.67;;;;;;;-145.18;100.00;47096.00;5012530;28;20034;-57
2023/06/14 00:52:49;;;;;;;4.27;2.60;;;;;;;-145.18;100.00;47099.91;5012940;28;20041;-57
2023/06/14 00:55:15;;;;;;;4.17;2.67;;;;;;;-145.18;100.00;47086.25;5013560;28;20041;-57
2023/06/14 00:57:41;;;;;;;15.40;2.93;;;;;;;-145.18;100.00;47074.53;5012848;28;20096;-57
2023/06/14 01:00:09;;;;;;;7.43;3.00;;;;;;;-145.18;100.00;47090.16;5012836;28;20372;-55
2023/06/14 01:02:37;;;;;;;5.40;2.70;;;;;;;-145.18;100.00;47088.19;5012930;28;20034;-57
2023/06/14 01:05:03;;;;;;;7.50;2.47;;;;;;;-145.18;100.00;47088.19;5012493;28;20033;-58
2023/06/14 01:07:40;;;;;;;9.97;3.03;;;;;;;-145.18;100.00;47086.25;5013901;28;20088;-57
2023/06/14 01:10:32;;;;;;;5.90;2.37;;;;;;;-145.18;100.00;47086.25;5012230;28;20037;-57
2023/06/14 01:13:15;;;;;;;4.50;2.60;;;;;;;-145.18;100.00;47094.06;5010777;28;20042;-57
2023/06/14 01:15:43;;;;;;;3.80;2.53;;;;;;;-145.18;100.00;47088.19;5012118;28;20038;-57
2023/06/14 01:18:16;;;;;;;4.57;2.77;;;;;;;-145.18;100.00;47088.19;5012748;28;20116;-57
2023/06/14 01:20:44;;;;;;;6.30;2.37;;;;;;;-145.18;100.00;47094.06;5012186;28;20026;-57
2023/06/14 01:23:12;;;;;;;6.67;2.50;;;;;;;-145.18;100.00;47113.59;5014854;28;20036;-57
2023/06/14 01:25:38;;;;;;;11.17;2.73;;;;;;;-145.18;100.00;47101.88;5012509;28;20030;-57
2023/06/14 01:28:12;;;;;;;4.87;2.80;;;;;;;-145.18;100.00;47096.00;5013440;28;20538;-57
2023/06/14 01:30:44;;;;;;;4.27;2.30;;;;;;;-145.18;100.00;47084.28;5011965;28;20032;-57
2023/06/14 01:33:15;;;;;;;6.00;2.90;;;;;;;-145.18;100.00;47099.91;5011906;28;20030;-57
2023/06/14 01:35:44;;;;;;;9.37;2.77;;;;;;;-145.18;100.00;47101.88;5013409;28;20029;-57
2023/06/14 01:38:10;;;;;;;3.67;2.43;;;;;;;-145.18;100.00;47117.50;5011380;28;20117;-57
2023/06/14 01:40:36;;;;;;;5.10;2.43;;;;;;;-145.18;100.00;47080.38;5013517;28;20125;-57
2023/06/14 01:43:03;;;;;;;4.10;2.50;;;;;;;-145.18;100.00;47078.44;5009814;28;20100;-56
2023/06/14 01:45:29;;;;;;;5.33;2.67;;;;;;;-145.18;100.00;47101.88;5012864;28;20521;-57
2023/06/14 01:47:55;;;;;;;5.27;2.50;;;;;;;-145.18;100.00;47113.59;5013683;28;20124;-57
2023/06/14 01:50:20;;;;;;;5.30;2.80;;;;;;;-145.18;100.00;47101.88;5011716;28;20100;-58
2023/06/14 01:52:46;;;;;;;5.07;2.50;;;;;;;-145.18;100.00;47097.97;5011629;28;20121;-57
2023/06/14 01:55:11;;;;;;;5.77;3.17;;;;;;;-145.18;100.00;47105.78;5011305;28;20030;-57
2023/06/14 01:57:36;;;;;;;8.70;3.20;;;;;;;-145.18;100.00;47111.66;5011849;28;20034;-57
2023/06/14 02:00:03;;;;;;;6.17;2.23;;;;;;;-145.18;100.00;47097.97;5011164;28;20034;-57
2023/06/14 02:02:29;;;;;;;4.13;2.60;;;;;;;-145.18;100.00;47117.50;5011839;28;20038;-57
2023/06/14 02:04:57;;;;;;;6.50;2.93;;;;;;;-145.18;100.00;47107.72;5011354;28;20049;-60
2023/06/14 02:07:23;;;;;;;5.53;2.90;;;;;;;-145.18;100.00;47103.81;5011357;28;20513;-60
2023/06/14 02:09:48;;;;;;;5.20;2.73;;;;;;;-145.18;100.00;47090.16;5010996;28;20042;-60
2023/06/14 02:12:13;;;;;;;5.33;2.47;;;;;;;-145.18;100.00;47113.59;4977384;28;20380;-60
2023/06/14 02:14:39;;;;;;;5.83;2.40;;;;;;;-145.18;100.00;47094.06;5011458;28;20040;-60
2023/06/14 02:17:06;;;;;;;5.50;2.60;;;;;;;-145.18;100.00;47111.66;5011264;28;20044;-60
2023/06/14 02:19:32;;;;;;;4.37;2.37;;;;;;;-145.18;100.00;47094.06;5008620;28;20129;-60
2023/06/14 02:21:57;;;;;;;4.53;2.53;;;;;;;-145.18;100.00;47109.69;5011574;28;20546;-60
2023/06/14 02:24:23;;;;;;;3.43;2.37;;;;;;;-145.18;100.00;47111.66;4993940;28;20448;-60
2023/06/14 02:26:49;;;;;;;3.70;2.50;;;;;;;-145.18;100.00;47115.56;4994748;28;20099;-60
2023/06/14 02:29:14;;;;;;;4.77;2.20;;;;;;;-145.18;100.00;47109.69;5011608;28;21410;-60
2023/06/14 02:31:40;;;;;;;6.00;2.43;;;;;;;-145.18;100.00;47121.41;4990924;28;20084;-60
2023/06/14 02:34:08;;;;;;;4.50;2.50;;;;;;;-145.18;100.00;47113.59;4993730;28;20034;-60
2023/06/14 02:36:34;;;;;;;4.57;2.40;;;;;;;-145.18;100.00;47123.38;5009843;28;20038;-60
2023/06/14 02:38:59;;;;;;;9.20;2.53;;;;;;;-145.18;100.00;47111.66;5011263;28;20061;-60
2023/06/14 02:41:25;;;;;;;7.77;2.60;;;;;;;-145.18;100.00;47111.66;5010380;28;20048;-60
2023/06/14 02:43:51;;;;;;;4.40;2.60;;;;;;;-145.18;100.00;47103.81;5008443;28;20022;-60
2023/06/14 02:46:17;;;;;;;7.50;2.50;;;;;;;-145.18;100.00;47113.59;4993168;28;20030;-60
2023/06/14 02:48:43;;;;;;;3.60;2.30;;;;;;;-145.18;100.00;47119.47;5011315;28;20025;-60
2023/06/14 02:51:09;;;;;;;4.73;2.20;;;;;;;-145.18;100.00;47109.69;5011076;28;20030;-60
2023/06/14 02:53:36;;;;;;;4.27;2.17;;;;;;;-145.18;100.00;47101.88;5010941;28;20506;-60
2023/06/14 02:56:03;;;;;;;3.30;2.43;;;;;;;-145.18;100.00;47107.72;4993755;28;20125;-60
2023/06/14 02:58:29;;;;;;;3.57;2.53;;;;;;;-145.18;100.00;47123.38;4994109;28;20034;-60
2023/06/14 03:00:54;;;;;;;5.13;2.50;;;;;;;-145.18;100.00;47125.31;5010937;28;20040;-60
2023/06/14 03:03:21;;;;;;;6.10;2.53;;;;;;;-145.18;100.00;47121.41;5011071;28;20629;-60
2023/06/14 03:05:49;;;;;;;4.70;2.43;;;;;;;-145.18;100.00;47129.22;4993607;28;20025;-60
2023/06/14 03:08:19;;;;;;;3.60;2.40;;;;;;;-145.18;100.00;47133.13;5008788;28;20038;-60
2023/06/14 03:10:46;;;;;;;6.20;2.43;;;;;;;-145.18;100.00;47133.13;5010664;28;20045;-60
2023/06/14 03:13:11;;;;;;;4.40;2.83;;;;;;;-145.18;100.00;47131.19;5010763;28;20042;-58
2023/06/14 03:15:38;;;;;;;5.17;2.70;;;;;;;-145.18;100.00;47109.69;5008605;28;20037;-57
2023/06/14 03:18:03;;;;;;;4.53;2.40;;;;;;;-145.18;100.00;47115.56;5010510;28;20030;-57
2023/06/14 03:20:32;;;;;;;6.33;3.03;;;;;;;-145.18;100.00;47135.09;5011024;28;20034;-57
2023/06/14 03:22:59;;;;;;;4.17;2.57;;;;;;;-145.18;100.00;47129.22;5008329;28;20169;-57
2023/06/14 03:25:25;;;;;;;7.70;2.63;;;;;;;-145.18;100.00;47127.28;5010956;28;20029;-57
2023/06/14 03:27:51;;;;;;;6.43;3.20;;;;;;;-145.18;100.00;47109.69;5011028;28;20028;-57
2023/06/14 03:30:16;;;;;;;5.40;2.87;;;;;;;-145.18;100.00;47125.31;4997074;28;20030;-58
2023/06/14 03:32:42;;;;;;;6.27;2.67;;;;;;;-145.18;100.00;47129.22;5014422;28;20407;-57
2023/06/14 03:35:07;;;;;;;5.23;2.67;;;;;;;-145.18;100.00;47144.84;5014527;28;20487;-57
2023/06/14 03:37:33;;;;;;;4.07;2.30;;;;;;;-145.18;100.00;47117.50;5015028;28;20029;-57
2023/06/14 03:39:58;;;;;;;5.90;2.97;;;;;;;-145.18;100.00;47125.31;5015937;28;20040;-57
2023/06/14 03:42:23;;;;;;;12.40;3.03;;;;;;;-145.18;100.00;47121.41;5015734;28;20041;-57
2023/06/14 03:44:49;;;;;;;3.67;2.70;;;;;;;-145.18;100.00;47137.03;5014310;28;20065;-57
2023/06/14 03:47:15;;;;;;;6.40;2.70;;;;;;;-145.18;100.00;47117.50;5014151;28;20430;-57
2023/06/14 03:49:40;;;;;;;5.33;2.93;;;;;;;-145.18;100.00;47142.91;5014366;28;20034;-57
2023/06/14 03:52:06;;;;;;;5.20;2.90;;;;;;;-145.18;100.00;47121.41;5014714;28;20034;-57
2023/06/14 03:54:32;;;;;;;5.07;2.60;;;;;;;-145.18;100.00;47117.50;5013650;28;20036;-57
2023/06/14 03:56:58;;;;;;;5.40;2.27;;;;;;;-145.18;100.00;47140.94;5014971;28;20040;-57
2023/06/14 03:59:25;;;;;;;4.93;2.63;;;;;;;-145.18;100.00;47133.13;5016261;28;20041;-57
2023/06/14 04:01:51;;;;;;;4.80;2.50;;;;;;;-145.18;100.00;47135.09;5015291;28;20626;-57
2023/06/14 04:04:16;;;;;;;7.07;2.50;;;;;;;-145.18;100.00;47154.63;5014418;28;20055;-57
2023/06/14 04:06:42;;;;;;;5.13;2.77;;;;;;;-145.18;100.00;47133.13;5014755;28;20042;-57
2023/06/14 04:09:08;;;;;;;4.60;2.63;;;;;;;-145.18;100.00;47142.91;4996370;28;20053;-58
2023/06/14 04:11:33;;;;;;;5.33;2.70;;;;;;;-145.18;100.00;47121.41;4996162;28;20034;-57
2023/06/14 04:13:59;;;;;;;4.23;2.20;;;;;;;-145.18;100.00;47119.47;5013939;28;20033;-57
2023/06/14 04:16:25;;;;;;;3.77;2.50;;;;;;;-145.18;100.00;47135.09;5008983;28;20407;-57
2023/06/14 04:18:52;;;;;;;4.67;2.77;;;;;;;-145.18;100.00;47135.09;5013060;28;20028;-57
2023/06/14 04:21:17;;;;;;;3.43;2.50;;;;;;;-145.18;100.00;47140.94;5014294;28;20442;-57
2023/06/14 04:23:43;;;;;;;4.20;2.43;;;;;;;-145.18;100.00;47129.22;5013814;28;20044;-57
2023/06/14 04:26:10;;;;;;;5.23;2.33;;;;;;;-145.18;100.00;47156.56;5013594;28;20056;-57
2023/06/14 04:28:40;;;;;;;4.70;2.47;;;;;;;-145.18;100.00;47137.03;5013350;28;20033;-57
2023/06/14 04:31:08;;;;;;;7.87;2.70;;;;;;;-145.18;100.00;47139.00;5012977;28;20044;-58
2023/06/14 04:33:44;;;;;;;5.57;2.70;;;;;;;-145.18;100.00;47117.50;5013423;28;20030;-58
2023/06/14 04:36:11;;;;;;;4.13;2.27;;;;;;;-145.18;100.00;47137.03;5014670;28;20029;-56
2023/06/14 04:38:37;;;;;;;6.53;3.13;;;;;;;-145.18;100.00;47135.09;5013449;28;20034;-57
2023/06/14 04:41:03;;;;;;;4.83;2.80;;;;;;;-145.18;100.00;47125.31;4982138;28;20128;-57
2023/06/14 04:43:28;;;;;;;10.60;2.80;;;;;;;-145.18;100.00;47140.94;5009227;28;20117;-57
2023/06/14 04:45:55;;;;;;;10.30;2.93;;;;;;;-145.18;100.00;47127.28;5013755;28;20088;-57
2023/06/14 04:48:22;;;;;;;4.13;2.10;;;;;;;-145.18;100.00;47123.38;4996641;28;20029;-57
2023/06/14 04:50:47;;;;;;;4.87;2.47;;;;;;;-145.18;100.00;47152.66;5014505;28;20037;-57
2023/06/14 04:53:13;;;;;;;8.10;3.63;;;;;;;-145.18;100.00;47140.94;5013718;28;20026;-57
2023/06/14 04:55:38;;;;;;;8.67;2.20;;;;;;;-145.18;100.00;47121.41;5012198;28;20152;-57
2023/06/14 04:58:04;;;;;;;6.63;2.40;;;;;;;-145.18;100.00;47121.41;5012371;28;20029;-57
2023/06/14 05:00:30;;;;;;;7.47;2.40;;;;;;;-145.18;100.00;47115.56;5012316;28;20029;-57
2023/06/14 05:02:56;;;;;;;5.57;2.43;;;;;;;-145.18;100.00;47121.41;5012488;28;20506;-57
2023/06/14 05:05:22;;;;;;;8.37;2.97;;;;;;;-145.18;100.00;47123.38;4995544;28;20034;-57
2023/06/14 05:07:48;;;;;;;6.17;2.30;;;;;;;-145.18;100.00;47133.13;5012183;28;20450;-57
2023/06/14 05:10:13;;;;;;;7.43;2.80;;;;;;;-145.18;100.00;47127.28;5002964;28;20165;-57
2023/06/14 05:12:39;;;;;;;7.60;2.33;;;;;;;-145.18;100.00;47117.50;5008966;28;20026;-57
2023/06/14 05:15:04;;;;;;;5.13;2.40;;;;;;;-145.18;100.00;47123.38;5002494;28;20409;-57
2023/06/14 05:17:30;;;;;;;5.20;2.50;;;;;;;-145.18;100.00;47113.59;5007650;28;20041;-57
2023/06/14 05:19:55;;;;;;;4.80;2.90;;;;;;;-145.18;100.00;47121.41;4991619;28;20060;-57
2023/06/14 05:22:21;;;;;;;7.43;2.27;;;;;;;-145.18;100.00;47133.13;5006502;28;20365;-57
2023/06/14 05:24:48;;;;;;;6.77;2.70;;;;;;;-145.18;100.00;47113.59;5004511;28;20539;-57
2023/06/14 05:27:13;;;;;;;6.17;2.70;;;;;;;-145.18;100.00;47113.59;5006302;28;20040;-58
2023/06/14 05:29:39;;;;;;;4.30;2.53;;;;;;;-145.18;100.00;47113.59;4998346;28;20030;-57
2023/06/14 05:32:04;;;;;;;7.67;2.60;;;;;;;-145.18;100.00;47099.91;5011060;28;20030;-57
2023/06/14 05:34:30;;;;;;;5.00;2.30;;;;;;;-145.18;100.00;47117.50;4993840;28;20041;-57
2023/06/14 05:36:56;;;;;;;5.37;2.20;;;;;;;-145.18;100.00;47097.97;5005658;28;20026;-57
2023/06/14 05:39:21;;;;;;;6.07;2.50;;;;;;;-145.18;100.00;47094.06;5003247;28;20057;-57
2023/06/14 05:41:46;;;;;;;4.87;2.73;;;;;;;-145.18;100.00;47101.88;4998114;28;20038;-58
2023/06/14 05:44:12;;;;;;;6.10;2.93;;;;;;;-145.18;100.00;47094.06;4992225;28;20105;-57
2023/06/14 05:46:39;;;;;;;5.93;2.63;;;;;;;-145.18;100.00;47109.69;5006269;28;20032;-57
2023/06/14 05:49:05;;;;;;;4.77;2.23;;;;;;;-145.18;100.00;47101.88;5004985;28;20036;-58
2023/06/14 05:51:30;;;;;;;4.73;2.47;;;;;;;-145.18;100.00;47088.19;5008226;28;20030;-58
2023/06/14 05:53:56;;;;;;;4.80;2.27;;;;;;;-145.18;100.00;47099.91;4987051;28;20089;-58
2023/06/14 05:56:22;;;;;;;6.40;2.43;;;;;;;-145.18;100.00;47088.19;5009155;28;20037;-58
2023/06/14 05:58:47;;;;;;;5.07;2.77;;;;;;;-145.18;100.00;47097.97;4999485;28;20387;-57
2023/06/14 06:01:13;;;;;;;4.60;2.40;;;;;;;-145.18;100.00;47097.97;5002264;28;20486;-57
2023/06/14 06:03:39;;;;;;;5.50;2.60;;;;;;;-145.18;100.00;47090.16;4988873;28;20538;-58
2023/06/14 06:06:05;;;;;;;4.47;2.50;;;;;;;-145.18;100.00;47080.38;5001837;28;20084;-58
2023/06/14 06:08:31;;;;;;;5.50;3.03;;;;;;;-145.18;100.00;47097.97;4984743;28;20055;-57
2023/06/14 06:10:57;;;;;;;5.47;3.10;;;;;;;-145.18;100.00;47086.25;4984186;28;20088;-57
2023/06/14 06:13:22;;;;;;;6.93;2.60;;;;;;;-145.18;100.00;47082.34;5006768;28;20393;-57
2023/06/14 06:15:48;;;;;;;5.00;2.67;;;;;;;-145.18;100.00;47082.34;4991528;28;20486;-58
2023/06/14 06:18:13;;;;;;;4.33;2.40;;;;;;;-145.18;100.00;47084.28;5005001;28;20042;-57
2023/06/14 06:20:39;;;;;;;6.83;2.70;;;;;;;-145.18;100.00;47066.72;5001456;28;20030;-58
2023/06/14 06:23:04;;;;;;;5.23;2.77;;;;;;;-145.18;100.00;47074.53;4977638;28;20049;-57
2023/06/14 06:25:31;;;;;;;5.23;2.70;;;;;;;-145.18;100.00;47082.34;4994255;28;20097;-57
2023/06/14 06:27:57;;;;;;;5.67;2.60;;;;;;;-145.18;100.00;47072.56;5006437;28;20030;-58
2023/06/14 06:30:24;;;;;;;7.20;3.20;;;;;;;-145.18;100.00;47070.63;4993695;28;20555;-57
2023/06/14 06:32:50;;;;;;;5.17;2.53;;;;;;;-145.18;100.00;47064.75;4994376;28;20030;-57
2023/06/14 06:35:16;;;;;;;4.90;2.80;;;;;;;-145.18;100.00;47066.72;4993038;28;20038;-58
2023/06/14 06:37:42;;;;;;;10.73;2.67;;;;;;;-145.18;100.00;47072.56;4994942;28;20026;-58
2023/06/14 06:40:08;;;;;;;8.47;2.87;;;;;;;-145.18;100.00;47053.03;4992696;28;20515;-57
2023/06/14 06:42:34;;;;;;;3.40;2.40;;;;;;;-145.18;100.00;47070.63;4978026;28;20026;-58
2023/06/14 06:44:59;;;;;;;4.77;2.63;;;;;;;-145.18;100.00;47066.72;4995771;28;20085;-60
2023/06/14 06:47:25;;;;;;;6.77;3.03;;;;;;;-145.18;100.00;47060.84;5009198;28;20080;-60
2023/06/14 06:49:51;;;;;;;4.20;2.83;;;;;;;-145.18;100.00;47078.44;5011909;28;20057;-60
2023/06/14 06:52:16;;;;;;;7.27;2.90;;;;;;;-145.18;100.00;47055.00;4995450;28;20033;-60
2023/06/14 06:54:41;;;;;;;7.90;2.40;;;;;;;-145.18;100.00;47043.28;4992698;28;20491;-60
2023/06/14 06:57:07;;;;;;;5.80;2.60;;;;;;;-145.18;100.00;47058.91;4993225;28;20443;-60
2023/06/14 06:59:33;;;;;;;5.57;3.03;;;;;;;-145.18;100.00;47039.34;4992542;28;20030;-60
2023/06/14 07:01:59;;;;;;;6.50;2.77;;;;;;;-145.18;100.00;47045.22;4992117;28;20026;-60
2023/06/14 07:04:24;;;;;;;6.87;3.57;;;;;;;-145.18;100.00;47041.31;4995195;28;20089;-60
2023/06/14 07:06:50;;;;;;;5.93;2.53;;;;;;;-145.18;100.00;47033.50;4999953;28;20052;-60
2023/06/14 07:09:16;;;;;;;5.23;3.47;;;;;;;-145.18;100.00;47043.28;5015541;28;20050;-60
2023/06/14 07:11:45;;;;;;;5.53;2.80;;;;;;;-145.18;100.00;47039.34;5015751;28;20042;-60
2023/06/14 07:14:10;;;;;;;8.80;2.60;;;;;;;-145.18;100.00;47043.28;5004924;28;20042;-61
2023/06/14 07:16:37;;;;;;;4.30;2.80;;;;;;;-145.18;100.00;47013.97;5013285;28;20036;-60
2023/06/14 07:19:03;;;;;;;5.37;3.17;;;;;;;-145.18;100.00;47033.50;5015591;28;20032;-60
2023/06/14 07:21:29;;;;;;;5.43;3.07;;;;;;;-145.18;100.00;47035.44;4997920;28;20431;-60
2023/06/14 07:23:54;;;;;;;3.73;2.77;;;;;;;-145.18;100.00;47039.34;4995982;28;20117;-60
2023/06/14 07:26:20;;;;;;;7.67;2.90;;;;;;;-145.18;100.00;47029.59;4995526;28;20026;-60
2023/06/14 07:28:47;;;;;;;5.03;2.80;;;;;;;-145.18;100.00;47017.88;5007430;28;20100;-60
2023/06/14 07:31:16;;;;;;;5.20;2.80;;;;;;;-145.18;100.00;47035.44;5001834;28;20427;-60
2023/06/14 07:33:42;;;;;;;10.20;3.00;;;;;;;-145.18;100.00;47008.09;5008841;28;20053;-60
2023/06/14 07:36:08;;;;;;;5.27;2.90;;;;;;;-145.18;100.00;47029.59;5004196;28;20035;-60
2023/06/14 07:38:34;;;;;;;4.30;2.53;;;;;;;-145.18;100.00;47029.59;5008154;28;20033;-60
2023/06/14 07:41:00;;;;;;;6.67;3.20;;;;;;;-145.18;100.00;47025.69;5004765;28;20034;-60
2023/06/14 07:43:25;;;;;;;7.30;2.77;;;;;;;-145.18;100.00;47027.63;5008597;28;20034;-60
2023/06/14 07:45:51;;;;;;;7.13;2.83;;;;;;;-145.18;100.00;47033.50;4980485;28;20488;-60
2023/06/14 07:48:16;;;;;;;4.77;2.97;;;;;;;-145.18;100.00;47000.28;4996096;28;20033;-60
2023/06/14 07:50:41;;;;;;;6.97;3.27;;;;;;;-145.18;100.00;47027.63;4961987;28;20058;-60
2023/06/14 07:53:07;;;;;;;4.83;2.77;;;;;;;-145.18;100.00;47002.25;4978528;28;20034;-60
2023/06/14 07:55:36;;;;;;;7.30;2.70;;;;;;;-145.18;100.00;47013.97;4995325;28;20436;-60
2023/06/14 07:58:06;;;;;;;5.57;2.67;;;;;;;-145.18;100.00;47000.28;4995106;28;20030;-60
2023/06/14 08:00:31;;;;;;;11.27;3.47;;;;;;;-145.18;100.00;47004.19;4995525;28;20472;-60
2023/06/14 08:02:59;;;;;;;7.27;2.60;;;;;;;-145.18;100.00;47006.16;5007075;28;20148;-60
2023/06/14 08:05:25;;;;;;;3.33;2.27;;;;;;;-145.18;100.00;46996.38;4996599;28;20022;-60
2023/06/14 08:07:51;;;;;;;5.20;3.10;;;;;;;-145.18;100.00;46994.44;4995641;28;20027;-60
2023/06/14 08:10:17;;;;;;;14.67;3.30;;;;;;;-145.18;100.00;46996.38;5010569;28;20080;-60
2023/06/14 08:12:43;;;;;;;9.03;2.70;;;;;;;-145.18;100.00;47010.06;5014692;28;20476;-61
2023/06/14 08:15:08;;;;;;;5.87;2.87;;;;;;;-145.18;100.00;47002.25;5014185;28;20037;-60
2023/06/14 08:17:34;;;;;;;6.20;2.90;;;;;;;-145.18;100.00;47010.06;5014908;28;20413;-60
2023/06/14 08:20:00;;;;;;;6.17;3.10;;;;;;;-145.18;100.00;46988.56;5014496;28;20045;-61
2023/06/14 08:22:25;;;;;;;4.90;2.70;;;;;;;-145.18;100.00;46980.75;5014828;28;20030;-60
2023/06/14 08:24:52;;;;;;;8.40;2.13;;;;;;;-145.18;100.00;46984.66;5014392;28;20029;-60
2023/06/14 08:27:18;;;;;;;7.30;2.40;;;;;;;-145.18;100.00;46978.81;4997353;28;20116;-60
2023/06/14 08:29:44;;;;;;;12.63;3.17;;;;;;;-145.18;100.00;46988.56;5014705;28;20113;-60
2023/06/14 08:32:10;;;;;;;4.10;2.60;;;;;;;-145.18;100.00;46980.75;5014702;28;20038;-60
2023/06/14 08:34:35;;;;;;;6.63;2.60;;;;;;;-145.18;100.00;46976.84;5014247;28;20037;-60
2023/06/14 08:37:01;;;;;;;4.57;2.47;;;;;;;-145.18;100.00;46980.75;5014505;28;20068;-61
2023/06/14 08:39:26;;;;;;;8.13;2.60;;;;;;;-145.18;100.00;46976.84;5013863;28;20054;-61
2023/06/14 08:41:52;;;;;;;4.40;2.90;;;;;;;-145.18;100.00;46971.00;5014319;28;20038;-60
2023/06/14 08:44:18;;;;;;;3.90;2.67;;;;;;;-145.18;100.00;46947.53;5014213;28;20033;-61
2023/06/14 08:46:43;;;;;;;6.77;2.67;;;;;;;-145.18;100.00;46959.25;5014256;28;20026;-61
2023/06/14 08:49:12;;;;;;;4.30;2.90;;;;;;;-145.18;100.00;46963.19;5014540;28;20026;-61
2023/06/14 08:51:40;;;;;;;5.30;2.87;;;;;;;-145.18;100.00;46957.31;5014162;28;20037;-61
2023/06/14 08:54:06;;;;;;;4.83;2.60;;;;;;;-145.18;100.00;46945.59;5014005;28;20034;-61
2023/06/14 08:56:33;;;;;;;5.23;2.30;;;;;;;-145.18;100.00;46953.41;5014124;28;20076;-61
2023/06/14 08:59:06;;;;;;;8.63;2.90;;;;;;;-145.18;100.00;46955.34;5013992;28;20045;-61
2023/06/14 09:01:38;;;;;;;5.43;2.43;;;;;;;-145.18;100.00;46951.44;5013726;28;20026;-61
2023/06/14 09:04:05;;;;;;;3.80;2.43;;;;;;;-145.18;100.00;46947.53;5014349;28;20038;-58
2023/06/14 09:06:31;;;;;;;3.60;2.17;;;;;;;-145.18;100.00;46955.34;5013947;28;20096;-58
2023/06/14 09:08:57;;;;;;;4.37;2.53;;;;;;;-145.18;100.00;46941.69;5013758;28;20080;-58
2023/06/14 09:11:23;;;;;;;6.93;2.50;;;;;;;-145.18;100.00;46953.41;5014810;28;20069;-58
2023/06/14 09:13:50;;;;;;;3.60;2.70;;;;;;;-145.18;100.00;46937.78;5025693;28;20049;-58
2023/06/14 09:16:16;;;;;;;5.13;2.63;;;;;;;-145.18;100.00;46937.78;5026362;28;20120;-58
2023/06/14 09:18:50;;;;;;;4.77;2.30;;;;;;;-145.18;100.00;46943.63;5013813;28;20092;-58
2023/06/14 09:21:17;;;;;;;3.23;2.17;;;;;;;-145.18;100.00;46941.69;5015511;28;20593;-57
2023/06/14 09:23:47;;;;;;;4.80;2.67;;;;;;;-145.18;100.00;46933.88;5024149;28;20034;-59
2023/06/14 09:26:13;;;;;;;4.57;2.13;;;;;;;-145.18;100.00;46929.97;5028631;28;20028;-58
2023/06/14 09:28:46;;;;;;;4.07;2.03;;;;;;;-145.18;100.00;46937.78;5023461;28;20029;-58
2023/06/14 09:31:13;;;;;;;2.77;2.13;;;;;;;-145.18;100.00;46939.72;5012407;28;20424;-58
2023/06/14 09:33:38;;;;;;;3.87;2.17;;;;;;;-145.18;100.00;46928.00;5013172;28;20082;-58
2023/06/14 09:36:09;;;;;;;3.67;1.93;;;;;;;-145.18;100.00;46918.25;5013040;28;20487;-58
2023/06/14 09:38:35;;;;;;;4.83;1.93;;;;;;;-145.18;100.00;46926.06;5014139;28;20037;-58
2023/06/14 09:41:03;;;;;;;4.27;1.73;;;;;;;-145.18;89.62;46920.19;5012546;28;20037;-58
2023/06/14 09:43:29;;;;;;;2.20;1.67;;;;;;;-145.18;82.15;46914.34;5013273;28;20029;-58
2023/06/14 09:45:55;;;;;;;6.17;1.90;;;;;;;-145.18;81.09;46920.19;5029304;28;20029;-58
2023/06/14 09:48:20;;;;;;;2.97;1.90;;;;;;;-145.18;78.96;46910.44;5003684;28;20112;-57
2023/06/14 09:50:48;;;;;;;3.13;1.53;;;;;;;-145.18;77.34;46910.44;5012773;28;20030;-58
2023/06/14 09:53:14;;;;;;;4.27;1.40;;;;;;;-145.18;75.45;46918.25;5013390;28;20041;-58
2023/06/14 09:55:41;;;;;;;4.70;2.20;;;;;;;-145.18;76.19;46912.38;5025343;28;20030;-58
2023/06/14 09:58:07;;;;;;;2.30;1.40;;;;;;;-145.18;70.69;46922.16;5012626;28;20541;-58
2023/06/14 10:00:34;;;;;;;3.73;1.67;;;;;;;-145.18;72.87;46904.56;5012620;28;20488;-58
2023/06/14 10:03:27;;;;;;;3.57;1.60;;;;;;;-145.18;72.93;46902.63;5012996;28;20095;-58
2023/06/14 10:05:55;;;;;;;4.90;1.60;;;;;;;-145.18;67.48;46912.38;5002447;28;20026;-58
2023/06/14 10:08:25;;;;;;;4.40;1.50;;;;;;;-145.18;68.47;46918.25;5014811;28;20045;-58
2023/06/14 10:10:51;;;;;;;2.83;1.30;;;;;;;-145.18;69.58;46906.53;5002587;28;20053;-58
2023/06/14 10:13:17;;;;;;;2.25;1.10;;;;;;;-145.18;67.45;46906.53;4992730;28;20030;-59
2023/06/14 10:15:55;;;;;;;2.97;1.67;;;;;;;-145.18;64.86;46898.72;4998892;28;20476;-58
2023/06/14 10:18:28;;;;;;;2.92;1.70;;;;;;;-145.18;67.51;46888.94;5000002;28;20027;-58
2023/06/14 10:21:26;;;;;;;2.38;1.48;;;;;;;-145.18;63.90;46896.75;4992533;28;20026;-58
2023/06/14 10:23:51;;;;;;;4.97;1.50;;;;;;;-145.18;61.55;46898.72;4994786;28;20061;-58
2023/06/14 10:26:23;;;;;;;5.65;1.42;;;;;;;-145.18;62.26;46896.75;4999057;28;20027;-59
2023/06/14 10:29:08;;;;;;;2.80;1.80;;;;;;;-145.18;58.50;46888.94;4992986;28;20112;-58
2023/06/14 10:31:42;;;;;;;2.15;1.23;;;;;;;-145.18;62.34;46890.91;4985487;28;20033;-58
2023/06/14 10:34:07;;;;;;;2.00;1.13;;;;;;;-145.18;63.80;46898.72;4988517;28;20060;-58
2023/06/14 10:36:34;;;;;;;1.70;1.30;;;;;;;-145.18;65.30;46904.56;4996959;28;20022;-58
2023/06/14 10:39:08;;;;;;;2.78;1.30;;;;;;;-145.18;61.84;46887.00;4997326;28;20555;-59
2023/06/14 10:41:41;;;;;;;1.98;1.27;;;;;;;-145.18;61.65;46871.38;4998669;28;20041;-59
2023/06/14 10:44:12;;;;;;;3.30;1.40;;;;;;;-145.18;61.66;46883.09;4995869;28;20030;-59
2023/06/14 10:46:39;;;;;;;2.45;1.30;;;;;;;-145.18;56.23;46887.00;4992672;28;20065;-59
2023/06/14 10:49:06;;;;;;;1.45;1.10;;;;;;;-145.18;57.90;46885.03;4996684;28;20025;-58
2023/06/14 10:51:47;;;;;;;4.50;1.45;;;;;;;-145.18;60.92;46881.13;4984197;28;20030;-58
2023/06/14 10:54:13;;;;;;;4.93;1.60;;;;;;;-145.18;58.09;46875.28;4998872;28;20356;-58
2023/06/14 10:56:49;;;;;;;2.15;1.50;;;;;;;-145.18;56.56;46873.31;4999116;28;20395;-59
2023/06/14 10:59:15;;;;;;;3.97;1.85;;;;;;;-145.18;56.74;46883.09;4980347;28;20496;-59
2023/06/14 11:01:55;;;;;;;2.47;1.30;;;;;;;-145.18;63.01;46871.38;4992523;28;20030;-58
2023/06/14 11:04:21;;;;;;;4.22;1.60;;;;;;;-145.18;59.87;46861.59;4992596;28;20026;-58
2023/06/14 11:06:53;;;;;;;2.30;1.50;;;;;;;-145.18;58.35;46863.53;4992134;28;20032;-58
2023/06/14 11:09:25;;;;;;;1.92;1.27;;;;;;;-145.18;55.48;46871.38;4999551;28;20113;-57